Time;durP1;ratioP1;P1;durP2;ratioP2;P2;SDS_P1;SDS_P2;PMS_P1;PMS_P2;Temp;Humidity;BMP_temperature;BMP_pressure;BME280_temperature;BME280_humidity;BME280_pressure;Samples;Min_cycle;Max_cycle;Signal;HPM_P1;HPM_P2
2022/04/13 00:02:09;;;;;;;;;;;;;;;;;;5115476;28;20007;-47
2022/04/13 00:04:35;;;;;;;;;;;;;;;;;;5115584;27;20374;-48
2022/04/13 00:07:02;;;;;;;;;;;;;;;;;;5113806;28;19919;-50
2022/04/13 00:09:28;;;;;;;;;;;;;;;;;;5115101;28;19973;-53
2022/04/13 00:11:55;;;;;;;;;;;;;;;;;;5114992;28;19915;-58
2022/04/13 00:14:24;;;;;;;;;;;;;;;;;;5115262;28;19997;-57
2022/04/13 00:16:51;;;;;;;;;;;;;;;;;;5116151;28;20014;-47
2022/04/13 00:19:17;;;;;;;;;;;;;;;;;;5116221;28;19973;-40
2022/04/13 00:21:44;;;;;;;;;;;;;;;;;;5115038;28;19908;-42
2022/04/13 00:24:12;;;;;;;;;;;;;;;;;;5115861;28;19974;-50
2022/04/13 00:26:38;;;;;;;;;;;;;;;;;;5115168;28;19914;-42
2022/04/13 00:29:05;;;;;;;;;;;;;;;;;;5115738;28;20385;-42
2022/04/13 00:31:31;;;;;;;;;;;;;;;;;;5116066;28;19934;-46
2022/04/13 00:33:58;;;;;;;;;;;;;;;;;;5115254;28;19908;-50
2022/04/13 00:36:24;;;;;;;;;;;;;;;;;;5114657;28;20331;-53
2022/04/13 00:38:51;;;;;;;;;;;;;;;;;;5113781;28;19907;-54
2022/04/13 00:41:17;;;;;;;;;;;;;;;;;;5115061;28;19908;-50
2022/04/13 00:43:44;;;;;;;;;;;;;;;;;;5114018;28;19920;-48
2022/04/13 00:46:10;;;;;;;;;;;;;;;;;;5112387;28;19951;-51
2022/04/13 00:48:37;;;;;;;;;;;;;;;;;;5114474;28;19908;-57
2022/04/13 00:51:03;;;;;;;;;;;;;;;;;;5115059;28;19976;-54
2022/04/13 00:53:30;;;;;;;;;;;;;;;;;;5114820;28;19915;-53
2022/04/13 00:55:56;;;;;;;;;;;;;;;;;;5114367;28;19946;-51
2022/04/13 00:58:22;;;;;;;;;;;;;;;;;;5114555;28;19912;-55
2022/04/13 01:00:49;;;;;;;;;;;;;;;;;;5114378;28;20354;-50
2022/04/13 01:03:15;;;;;;;;;;;;;;;;;;5114792;28;19960;-55
2022/04/13 01:05:42;;;;;;;;;;;;;;;;;;5114577;28;19924;-52
2022/04/13 01:08:08;;;;;;;;;;;;;;;;;;5114127;28;19987;-50
2022/04/13 01:10:35;;;;;;;;;;;;;;;;;;5114142;28;19907;-49
2022/04/13 01:13:02;;;;;;;;;;;;;;;;;;5114003;28;19959;-51
2022/04/13 01:15:28;;;;;;;;;;;;;;;;;;5114272;28;19935;-50
2022/04/13 01:17:55;;;;;;;;;;;;;;;;;;5113960;28;19916;-45
2022/04/13 01:20:23;;;;;;;;;;;;;;;;;;5113979;28;19912;-45
2022/04/13 01:22:49;;;;;;;;;;;;;;;;;;5111927;28;19908;-45
2022/04/13 01:25:16;;;;;;;;;;;;;;;;;;5114388;28;19915;-54
2022/04/13 01:27:42;;;;;;;;;;;;;;;;;;5113877;28;20467;-51
2022/04/13 01:30:09;;;;;;;;;;;;;;;;;;5113581;28;19911;-56
2022/04/13 01:32:35;;;;;;;;;;;;;;;;;;5114243;28;19908;-46
2022/04/13 01:35:02;;;;;;;;;;;;;;;;;;5114467;28;20342;-52
2022/04/13 01:37:28;;;;;;;;;;;;;;;;;;5113334;28;20427;-52
2022/04/13 01:39:54;;;;;;;;;;;;;;;;;;5114386;28;20334;-53
2022/04/13 01:42:21;;;;;;;;;;;;;;;;;;5113737;28;19959;-51
2022/04/13 01:44:48;;;;;;;;;;;;;;;;;;5113734;28;19914;-53
2022/04/13 01:47:14;;;;;;;;;;;;;;;;;;5113963;28;19919;-54
2022/04/13 01:49:41;;;;;;;;;;;;;;;;;;5113484;28;20438;-51
2022/04/13 01:52:07;;;;;;;;;;;;;;;;;;5113559;28;20368;-53
2022/04/13 01:54:33;;;;;;;;;;;;;;;;;;5113694;28;20306;-51
2022/04/13 01:57:00;;;;;;;;;;;;;;;;;;5113393;28;19915;-52
2022/04/13 01:59:26;;;;;;;;;;;;;;;;;;5113443;28;20428;-53
2022/04/13 02:01:53;;;;;;;;;;;;;;;;;;5113820;28;19920;-54
2022/04/13 02:04:19;;;;;;;;;;;;;;;;;;5113225;28;20014;-54
2022/04/13 02:06:46;;;;;;;;;;;;;;;;;;5113438;28;19911;-53
2022/04/13 02:09:12;;;;;;;;;;;;;;;;;;5113503;28;20370;-56
2022/04/13 02:11:39;;;;;;;;;;;;;;;;;;5113704;28;19904;-52
2022/04/13 02:14:05;;;;;;;;;;;;;;;;;;5113585;28;19961;-54
2022/04/13 02:16:32;;;;;;;;;;;;;;;;;;5111359;28;20393;-54
2022/04/13 02:18:58;;;;;;;;;;;;;;;;;;5112873;28;19908;-56
2022/04/13 02:21:25;;;;;;;;;;;;;;;;;;5112081;28;19915;-53
2022/04/13 02:23:51;;;;;;;;;;;;;;;;;;5112640;28;19995;-49
2022/04/13 02:26:19;;;;;;;;;;;;;;;;;;5112604;28;19908;-53
2022/04/13 02:28:45;;;;;;;;;;;;;;;;;;5113241;28;20342;-55
2022/04/13 02:31:12;;;;;;;;;;;;;;;;;;5102995;28;19920;-52
2022/04/13 02:33:39;;;;;;;;;;;;;;;;;;5092459;28;19953;-55
2022/04/13 02:36:08;;;;;;;;;;;;;;;;;;5091102;28;20354;-53
2022/04/13 02:38:35;;;;;;;;;;;;;;;;;;5100593;28;20002;-57
2022/04/13 02:41:02;;;;;;;;;;;;;;;;;;5113460;28;19912;-52
2022/04/13 02:43:29;;;;;;;;;;;;;;;;;;5111657;28;19956;-51
2022/04/13 02:45:57;;;;;;;;;;;;;;;;;;5112824;28;19961;-54
2022/04/13 02:48:23;;;;;;;;;;;;;;;;;;5113139;28;19912;-53
2022/04/13 02:50:50;;;;;;;;;;;;;;;;;;5117167;28;19947;-50
2022/04/13 02:53:16;;;;;;;;;;;;;;;;;;5102580;28;19958;-53
2022/04/13 02:55:43;;;;;;;;;;;;;;;;;;5096228;28;19908;-47
2022/04/13 02:58:09;;;;;;;;;;;;;;;;;;5096325;28;20019;-49
2022/04/13 03:00:36;;;;;;;;;;;;;;;;;;5100300;28;19907;-48
2022/04/13 03:03:02;;;;;;;;;;;;;;;;;;5116812;28;20002;-43
2022/04/13 03:05:29;;;;;;;;;;;;;;;;;;5116688;28;19920;-42
2022/04/13 03:07:55;;;;;;;;;;;;;;;;;;5113127;28;19911;-43
2022/04/13 03:10:22;;;;;;;;;;;;;;;;;;5094920;28;19920;-46
2022/04/13 03:12:48;;;;;;;;;;;;;;;;;;5096170;28;20350;-43
2022/04/13 03:15:15;;;;;;;;;;;;;;;;;;5095340;28;20323;-51
2022/04/13 03:17:41;;;;;;;;;;;;;;;;;;5095232;28;20110;-46
2022/04/13 03:20:08;;;;;;;;;;;;;;;;;;5096092;28;19931;-47
2022/04/13 03:22:34;;;;;;;;;;;;;;;;;;5094939;28;19908;-54
2022/04/13 03:25:01;;;;;;;;;;;;;;;;;;5095685;28;19908;-55
2022/04/13 03:27:27;;;;;;;;;;;;;;;;;;5095817;28;19951;-50
2022/04/13 03:29:54;;;;;;;;;;;;;;;;;;5099107;28;19908;-47
2022/04/13 03:32:20;;;;;;;;;;;;;;;;;;5115737;27;19932;-49
2022/04/13 03:34:46;;;;;;;;;;;;;;;;;;5116140;28;19961;-53
2022/04/13 03:37:13;;;;;;;;;;;;;;;;;;5115482;28;19932;-54
2022/04/13 03:39:39;;;;;;;;;;;;;;;;;;5115856;27;19915;-54
2022/04/13 03:42:07;;;;;;;;;;;;;;;;;;5115757;28;19904;-48
2022/04/13 03:44:34;;;;;;;;;;;;;;;;;;5116158;27;20304;-45
2022/04/13 03:47:00;;;;;;;;;;;;;;;;;;5114987;28;19908;-52
2022/04/13 03:49:27;;;;;;;;;;;;;;;;;;5115915;28;20050;-47
2022/04/13 03:51:53;;;;;;;;;;;;;;;;;;5115784;28;20424;-48
2022/04/13 03:54:19;;;;;;;;;;;;;;;;;;5115774;28;20274;-47
2022/04/13 03:56:46;;;;;;;;;;;;;;;;;;5115975;28;20282;-53
2022/04/13 03:59:13;;;;;;;;;;;;;;;;;;5116080;28;19953;-49
2022/04/13 04:01:39;;;;;;;;;;;;;;;;;;5115369;28;20423;-49
2022/04/13 04:04:06;;;;;;;;;;;;;;;;;;5115181;28;20006;-48
2022/04/13 04:06:32;;;;;;;;;;;;;;;;;;5115248;28;20046;-58
2022/04/13 04:09:02;;;;;;;;;;;;;;;;;;5114558;28;20216;-49
2022/04/13 04:11:29;;;;;;;;;;;;;;;;;;5115282;28;19908;-51
2022/04/13 04:13:56;;;;;;;;;;;;;;;;;;5115868;28;19910;-56
2022/04/13 04:16:22;;;;;;;;;;;;;;;;;;5114957;28;19920;-50
2022/04/13 04:18:50;;;;;;;;;;;;;;;;;;5115181;28;19942;-50
2022/04/13 04:21:16;;;;;;;;;;;;;;;;;;5114114;28;20532;-50
2022/04/13 04:23:43;;;;;;;;;;;;;;;;;;5114899;28;19968;-51
2022/04/13 04:26:09;;;;;;;;;;;;;;;;;;5115205;28;19908;-50
2022/04/13 04:28:36;;;;;;;;;;;;;;;;;;5115091;28;19939;-52
2022/04/13 04:31:02;;;;;;;;;;;;;;;;;;5113818;28;19915;-48
2022/04/13 04:33:29;;;;;;;;;;;;;;;;;;5114730;28;19919;-55
2022/04/13 04:35:55;;;;;;;;;;;;;;;;;;5115650;28;19907;-54
2022/04/13 04:38:22;;;;;;;;;;;;;;;;;;5115046;28;19919;-52
2022/04/13 04:40:48;;;;;;;;;;;;;;;;;;5115284;28;20276;-51
2022/04/13 04:43:14;;;;;;;;;;;;;;;;;;5115027;28;19930;-50
2022/04/13 04:45:41;;;;;;;;;;;;;;;;;;5114841;28;19908;-54
2022/04/13 04:48:07;;;;;;;;;;;;;;;;;;5114856;28;20358;-49
2022/04/13 04:50:34;;;;;;;;;;;;;;;;;;5114057;28;20243;-50
2022/04/13 04:53:00;;;;;;;;;;;;;;;;;;5113913;28;19908;-50
2022/04/13 04:55:27;;;;;;;;;;;;;;;;;;5114242;28;20338;-53
2022/04/13 04:57:53;;;;;;;;;;;;;;;;;;5112648;28;20219;-49
2022/04/13 05:00:20;;;;;;;;;;;;;;;;;;5114281;28;20249;-54
2022/04/13 05:02:47;;;;;;;;;;;;;;;;;;5114979;28;19908;-48
2022/04/13 05:05:14;;;;;;;;;;;;;;;;;;5114360;28;19931;-52
2022/04/13 05:07:40;;;;;;;;;;;;;;;;;;5114782;28;19988;-50
2022/04/13 05:10:08;;;;;;;;;;;;;;;;;;5114887;28;19996;-54
2022/04/13 05:12:37;;;;;;;;;;;;;;;;;;5113317;28;20278;-53
2022/04/13 05:15:03;;;;;;;;;;;;;;;;;;5114537;28;19915;-55
2022/04/13 05:17:29;;;;;;;;;;;;;;;;;;5113151;28;19969;-55
2022/04/13 05:19:56;;;;;;;;;;;;;;;;;;5114785;28;19915;-58
2022/04/13 05:22:22;;;;;;;;;;;;;;;;;;5113588;28;19915;-49
2022/04/13 05:24:49;;;;;;;;;;;;;;;;;;5114002;28;19907;-53
2022/04/13 05:27:16;;;;;;;;;;;;;;;;;;5113987;28;19912;-57
2022/04/13 05:29:42;;;;;;;;;;;;;;;;;;5114224;28;19908;-52
2022/04/13 05:32:09;;;;;;;;;;;;;;;;;;5113849;28;20013;-45
2022/04/13 05:34:35;;;;;;;;;;;;;;;;;;5114066;28;20318;-50
2022/04/13 05:37:02;;;;;;;;;;;;;;;;;;5113816;28;19923;-50
2022/04/13 05:39:28;;;;;;;;;;;;;;;;;;5111962;28;20389;-53
2022/04/13 05:41:56;;;;;;;;;;;;;;;;;;5113589;28;20326;-43
2022/04/13 05:44:23;;;;;;;;;;;;;;;;;;5113368;28;20074;-48
2022/04/13 05:46:49;;;;;;;;;;;;;;;;;;5112356;28;19907;-50
2022/04/13 05:49:16;;;;;;;;;;;;;;;;;;5113567;28;19912;-51
2022/04/13 05:51:42;;;;;;;;;;;;;;;;;;5113705;28;20366;-56
2022/04/13 05:54:08;;;;;;;;;;;;;;;;;;5113454;28;20342;-57
2022/04/13 05:56:35;;;;;;;;;;;;;;;;;;5112994;28;20269;-52
2022/04/13 05:59:01;;;;;;;;;;;;;;;;;;5113323;28;19961;-51
2022/04/13 06:01:28;;;;;;;;;;;;;;;;;;5113406;28;19987;-56
2022/04/13 06:03:54;;;;;;;;;;;;;;;;;;5113297;28;19924;-50
2022/04/13 06:06:25;;;;;;;;;;;;;;;;;;5113015;28;20373;-55
2022/04/13 06:08:51;;;;;;;;;;;;;;;;;;5113146;28;19911;-49
2022/04/13 06:11:18;;;;;;;;;;;;;;;;;;5113513;28;19903;-51
2022/04/13 06:13:44;;;;;;;;;;;;;;;;;;5112653;28;19912;-56
2022/04/13 06:16:11;;;;;;;;;;;;;;;;;;5112516;28;19911;-54
2022/04/13 06:18:37;;;;;;;;;;;;;;;;;;5112953;28;19918;-54
2022/04/13 06:21:04;;;;;;;;;;;;;;;;;;5113067;28;20354;-46
2022/04/13 06:23:30;;;;;;;;;;;;;;;;;;5111783;28;20362;-52
2022/04/13 06:25:57;;;;;;;;;;;;;;;;;;5112745;28;19969;-52
2022/04/13 06:28:23;;;;;;;;;;;;;;;;;;5111600;28;19915;-50
2022/04/13 06:30:50;;;;;;;;;;;;;;;;;;5112943;28;20262;-52
2022/04/13 06:33:16;;;;;;;;;;;;;;;;;;5112529;28;20356;-53
2022/04/13 06:35:43;;;;;;;;;;;;;;;;;;5112685;28;20325;-44
2022/04/13 06:38:09;;;;;;;;;;;;;;;;;;5112170;28;19916;-50
2022/04/13 06:40:36;;;;;;;;;;;;;;;;;;5112798;28;19908;-49
2022/04/13 06:43:02;;;;;;;;;;;;;;;;;;5112500;28;19916;-51
2022/04/13 06:45:28;;;;;;;;;;;;;;;;;;5112648;28;19907;-50
2022/04/13 06:47:55;;;;;;;;;;;;;;;;;;5112346;28;19908;-50
2022/04/13 06:50:21;;;;;;;;;;;;;;;;;;5111830;28;19912;-51
2022/04/13 06:52:48;;;;;;;;;;;;;;;;;;5112481;28;19935;-56
2022/04/13 06:55:14;;;;;;;;;;;;;;;;;;5112442;28;20318;-50
2022/04/13 06:57:41;;;;;;;;;;;;;;;;;;5112826;28;19961;-51
2022/04/13 07:00:07;;;;;;;;;;;;;;;;;;5111268;28;19907;-49
2022/04/13 07:02:34;;;;;;;;;;;;;;;;;;5112416;28;20321;-50
2022/04/13 07:05:00;;;;;;;;;;;;;;;;;;5112431;28;20290;-46
2022/04/13 07:07:27;;;;;;;;;;;;;;;;;;5111431;28;19908;-49
2022/04/13 07:09:53;;;;;;;;;;;;;;;;;;5111875;28;20425;-52
2022/04/13 07:12:20;;;;;;;;;;;;;;;;;;5112313;28;19943;-49
2022/04/13 07:14:46;;;;;;;;;;;;;;;;;;5111960;28;19916;-50
2022/04/13 07:17:13;;;;;;;;;;;;;;;;;;5111786;28;19912;-51
2022/04/13 07:19:39;;;;;;;;;;;;;;;;;;5111965;28;20350;-55
2022/04/13 07:22:05;;;;;;;;;;;;;;;;;;5111949;28;20358;-54
2022/04/13 07:24:32;;;;;;;;;;;;;;;;;;5112212;28;19956;-53
2022/04/13 07:26:58;;;;;;;;;;;;;;;;;;5112186;28;19920;-53
2022/04/13 07:29:25;;;;;;;;;;;;;;;;;;5111847;28;19908;-52
2022/04/13 07:31:51;;;;;;;;;;;;;;;;;;5112234;28;19931;-55
2022/04/13 07:34:18;;;;;;;;;;;;;;;;;;5111900;28;19914;-48
2022/04/13 07:36:44;;;;;;;;;;;;;;;;;;5116301;28;20323;-51
2022/04/13 07:39:11;;;;;;;;;;;;;;;;;;5116244;28;19912;-52
2022/04/13 07:41:37;;;;;;;;;;;;;;;;;;5116193;28;20011;-47
2022/04/13 07:44:04;;;;;;;;;;;;;;;;;;5116018;27;19908;-46
2022/04/13 07:46:30;;;;;;;;;;;;;;;;;;5115995;28;19903;-46
2022/04/13 07:48:57;;;;;;;;;;;;;;;;;;5115567;28;19914;-54
2022/04/13 07:51:23;;;;;;;;;;;;;;;;;;5114973;28;19904;-43
2022/04/13 07:53:50;;;;;;;;;;;;;;;;;;5116375;28;19908;-46
2022/04/13 07:56:16;;;;;;;;;;;;;;;;;;5115305;28;19911;-46
2022/04/13 07:58:43;;;;;;;;;;;;;;;;;;5115590;28;19912;-46
2022/04/13 08:01:09;;;;;;;;;;;;;;;;;;5115042;28;19908;-53
2022/04/13 08:03:36;;;;;;;;;;;;;;;;;;5115310;28;19907;-54
2022/04/13 08:06:05;;;;;;;;;;;;;;;;;;5113945;28;19912;-49
2022/04/13 08:08:32;;;;;;;;;;;;;;;;;;5114849;27;19951;-53
2022/04/13 08:10:58;;;;;;;;;;;;;;;;;;5115084;28;19907;-48
2022/04/13 08:13:25;;;;;;;;;;;;;;;;;;5114711;28;19966;-53
2022/04/13 08:15:51;;;;;;;;;;;;;;;;;;5115372;28;19969;-49
2022/04/13 08:18:18;;;;;;;;;;;;;;;;;;5114568;28;19927;-52
2022/04/13 08:20:45;;;;;;;;;;;;;;;;;;5114484;28;19915;-45
2022/04/13 08:23:11;;;;;;;;;;;;;;;;;;5114781;28;19995;-47
2022/04/13 08:25:38;;;;;;;;;;;;;;;;;;5114758;28;19934;-52
2022/04/13 08:28:04;;;;;;;;;;;;;;;;;;5115085;28;19908;-54
2022/04/13 08:30:31;;;;;;;;;;;;;;;;;;5115034;28;19915;-50
2022/04/13 08:32:57;;;;;;;;;;;;;;;;;;5114778;28;19908;-53
2022/04/13 08:35:23;;;;;;;;;;;;;;;;;;5114770;28;20384;-55
2022/04/13 08:37:50;;;;;;;;;;;;;;;;;;5114638;28;19927;-52
2022/04/13 08:40:20;;;;;;;;;;;;;;;;;;5114434;28;20275;-52
2022/04/13 08:42:47;;;;;;;;;;;;;;;;;;5113799;28;19943;-49
2022/04/13 08:45:13;;;;;;;;;;;;;;;;;;5112969;28;19908;-56
2022/04/13 08:47:40;;;;;;;;;;;;;;;;;;5114161;28;20657;-45
2022/04/13 08:50:06;;;;;;;;;;;;;;;;;;5115081;28;19908;-53
2022/04/13 08:52:34;;;;;;;;;;;;;;;;;;5115813;28;19908;-53
2022/04/13 08:55:01;;;;;;;;;;;;;;;;;;5095278;28;19909;-54
2022/04/13 08:57:27;;;;;;;;;;;;;;;;;;5094075;28;19920;-41
2022/04/13 08:59:54;;;;;;;;;;;;;;;;;;5093859;28;19989;-51
2022/04/13 09:02:20;;;;;;;;;;;;;;;;;;5091493;28;19908;-49
2022/04/13 09:04:47;;;;;;;;;;;;;;;;;;5092694;28;20030;-55
2022/04/13 09:07:14;;;;;;;;;;;;;;;;;;5092943;28;19915;-55
2022/04/13 09:09:41;;;;;;;;;;;;;;;;;;5093955;28;19942;-49
2022/04/13 09:12:07;;;;;;;;;;;;;;;;;;5093205;28;19908;-45
2022/04/13 09:14:34;;;;;;;;;;;;;;;;;;5093528;28;19958;-49
2022/04/13 09:17:00;;;;;;;;;;;;;;;;;;5093620;28;19916;-50
2022/04/13 09:19:27;;;;;;;;;;;;;;;;;;5093037;28;19939;-47
2022/04/13 09:21:53;;;;;;;;;;;;;;;;;;5093688;28;19912;-52
2022/04/13 09:24:20;;;;;;;;;;;;;;;;;;5093882;28;19909;-49
2022/04/13 09:26:46;;;;;;;;;;;;;;;;;;5093890;28;19908;-49
2022/04/13 09:29:13;;;;;;;;;;;;;;;;;;5093869;28;19954;-52
2022/04/13 09:31:39;;;;;;;;;;;;;;;;;;5093996;28;19946;-47
2022/04/13 09:34:06;;;;;;;;;;;;;;;;;;5093509;28;19912;-44
2022/04/13 09:36:32;;;;;;;;;;;;;;;;;;5092939;28;19923;-45
2022/04/13 09:38:59;;;;;;;;;;;;;;;;;;5093466;28;19912;-49
2022/04/13 09:41:25;;;;;;;;;;;;;;;;;;5093662;28;19908;-47
2022/04/13 09:43:52;;;;;;;;;;;;;;;;;;5093446;28;19912;-46
2022/04/13 09:46:18;;;;;;;;;;;;;;;;;;5093552;28;19939;-44
2022/04/13 09:48:48;;;;;;;;;;;;;;;;;;5093407;28;20346;-51
2022/04/13 09:51:14;;;;;;;;;;;;;;;;;;5091572;28;20471;-48
2022/04/13 09:53:41;;;;;;;;;;;;;;;;;;5093372;28;20380;-51
2022/04/13 09:56:08;;;;;;;;;;;;;;;;;;5093725;28;19981;-51
2022/04/13 09:58:34;;;;;;;;;;;;;;;;;;5093298;28;19969;-52
2022/04/13 10:01:10;;;;;;;;;;;;;;;;;;5092942;28;20313;-52
2022/04/13 10:03:37;;;;;;;;;;;;;;;;;;5093229;28;19912;-45
2022/04/13 10:06:06;;;;;;;;;;;;;;;;;;5093175;28;20370;-50
2022/04/13 10:08:32;;;;;;;;;;;;;;;;;;5093142;28;19990;-48
2022/04/13 10:10:59;;;;;;;;;;;;;;;;;;5093431;28;19912;-49
2022/04/13 10:13:25;;;;;;;;;;;;;;;;;;5093610;28;20010;-47
2022/04/13 10:15:52;;;;;;;;;;;;;;;;;;5093090;28;19912;-44
2022/04/13 10:18:18;;;;;;;;;;;;;;;;;;5093117;28;20405;-46
2022/04/13 10:20:45;;;;;;;;;;;;;;;;;;5093282;28;19961;-47
2022/04/13 10:23:11;;;;;;;;;;;;;;;;;;5092838;28;19908;-48
2022/04/13 10:25:38;;;;;;;;;;;;;;;;;;5093212;28;19908;-54
2022/04/13 10:28:04;;;;;;;;;;;;;;;;;;5092775;28;19916;-54
2022/04/13 10:30:31;;;;;;;;;;;;;;;;;;5093035;28;19908;-56
2022/04/13 10:32:58;;;;;;;;;;;;;;;;;;5093344;28;19908;-53
2022/04/13 10:35:24;;;;;;;;;;;;;;;;;;5092653;28;19911;-51
2022/04/13 10:37:51;;;;;;;;;;;;;;;;;;5092814;28;20342;-43
2022/04/13 10:40:18;;;;;;;;;;;;;;;;;;5092534;28;20337;-51
2022/04/13 10:42:44;;;;;;;;;;;;;;;;;;5092666;28;19904;-50
2022/04/13 10:45:11;;;;;;;;;;;;;;;;;;5092881;28;20270;-50
2022/04/13 10:47:37;;;;;;;;;;;;;;;;;;5092929;28;19904;-52
2022/04/13 10:50:04;;;;;;;;;;;;;;;;;;5092810;28;20002;-56
2022/04/13 10:52:30;;;;;;;;;;;;;;;;;;5091336;28;20227;-49
2022/04/13 10:54:57;;;;;;;;;;;;;;;;;;5092977;28;19908;-50
2022/04/13 10:57:23;;;;;;;;;;;;;;;;;;5092758;28;20342;-55
2022/04/13 10:59:50;;;;;;;;;;;;;;;;;;5092705;28;19909;-43
2022/04/13 11:02:16;;;;;;;;;;;;;;;;;;5092731;28;20031;-54
2022/04/13 11:04:42;;;;;;;;;;;;;;;;;;5092563;28;19920;-53
2022/04/13 11:07:09;;;;;;;;;;;;;;;;;;5092549;28;19912;-55
2022/04/13 11:09:35;;;;;;;;;;;;;;;;;;5093252;28;19908;-55
2022/04/13 11:12:02;;;;;;;;;;;;;;;;;;5096445;28;19919;-55
2022/04/13 11:14:29;;;;;;;;;;;;;;;;;;5096605;28;19908;-54
2022/04/13 11:16:55;;;;;;;;;;;;;;;;;;5095855;28;19916;-54
2022/04/13 11:19:22;;;;;;;;;;;;;;;;;;5096885;28;19912;-49
2022/04/13 11:21:48;;;;;;;;;;;;;;;;;;5097186;28;19908;-53
2022/04/13 11:24:15;;;;;;;;;;;;;;;;;;5096385;28;19908;-51
2022/04/13 11:26:41;;;;;;;;;;;;;;;;;;5096855;28;20006;-51
2022/04/13 11:29:07;;;;;;;;;;;;;;;;;;5096099;28;19995;-51
2022/04/13 11:31:34;;;;;;;;;;;;;;;;;;5096790;28;20342;-48
2022/04/13 11:34:00;;;;;;;;;;;;;;;;;;5096843;28;20265;-49
2022/04/13 11:36:27;;;;;;;;;;;;;;;;;;5096086;28;20048;-56
2022/04/13 11:38:53;;;;;;;;;;;;;;;;;;5096998;28;19908;-47
2022/04/13 11:41:20;;;;;;;;;;;;;;;;;;5096089;28;19984;-47
2022/04/13 11:43:46;;;;;;;;;;;;;;;;;;5096140;28;20297;-53
2022/04/13 11:46:13;;;;;;;;;;;;;;;;;;5096097;28;19908;-50
2022/04/13 11:48:39;;;;;;;;;;;;;;;;;;5095527;28;19935;-52
2022/04/13 11:51:06;;;;;;;;;;;;;;;;;;5095987;28;19918;-47
2022/04/13 11:53:32;;;;;;;;;;;;;;;;;;5095127;28;20435;-49
2022/04/13 11:55:58;;;;;;;;;;;;;;;;;;5095803;28;20010;-51
2022/04/13 11:58:25;;;;;;;;;;;;;;;;;;5095855;28;19920;-55
2022/04/13 12:01:07;;;;;;;;;;;;;;;;;;5094212;28;19919;-54
2022/04/13 12:03:39;;;;;;;;;;;;;;;;;;5095851;28;19912;-49
2022/04/13 12:06:07;;;;;;;;;;;;;;;;;;5094579;28;19992;-52
2022/04/13 12:08:35;;;;;;;;;;;;;;;;;;5095719;28;20359;-53
2022/04/13 12:11:02;;;;;;;;;;;;;;;;;;5095632;28;19937;-47
2022/04/13 12:13:32;;;;;;;;;;;;;;;;;;5095663;28;19908;-52
2022/04/13 12:15:59;;;;;;;;;;;;;;;;;;5095665;28;19912;-56
2022/04/13 12:18:25;;;;;;;;;;;;;;;;;;5095258;28;19939;-48
2022/04/13 12:20:52;;;;;;;;;;;;;;;;;;5094125;28;19912;-51
2022/04/13 12:23:18;;;;;;;;;;;;;;;;;;5094852;28;19908;-51
2022/04/13 12:25:45;;;;;;;;;;;;;;;;;;5095092;28;19953;-44
2022/04/13 12:28:11;;;;;;;;;;;;;;;;;;5095227;28;19915;-40
2022/04/13 12:30:38;;;;;;;;;;;;;;;;;;5095434;28;19912;-46
2022/04/13 12:33:04;;;;;;;;;;;;;;;;;;5095342;28;19908;-51
2022/04/13 12:35:32;;;;;;;;;;;;;;;;;;5095280;28;19910;-44
2022/04/13 12:37:58;;;;;;;;;;;;;;;;;;5095364;28;20014;-42
2022/04/13 12:40:25;;;;;;;;;;;;;;;;;;5095372;28;19908;-47
2022/04/13 12:42:51;;;;;;;;;;;;;;;;;;5094695;28;20271;-46
2022/04/13 12:45:18;;;;;;;;;;;;;;;;;;5095035;28;19961;-54
2022/04/13 12:47:45;;;;;;;;;;;;;;;;;;5094783;28;19919;-45
2022/04/13 12:50:11;;;;;;;;;;;;;;;;;;5094614;28;19908;-46
2022/04/13 12:52:38;;;;;;;;;;;;;;;;;;5095186;28;20282;-47
2022/04/13 12:55:04;;;;;;;;;;;;;;;;;;5094976;28;19952;-53
2022/04/13 12:57:31;;;;;;;;;;;;;;;;;;5094873;28;19916;-55
2022/04/13 12:59:57;;;;;;;;;;;;;;;;;;5095123;28;20256;-55
2022/04/13 13:02:24;;;;;;;;;;;;;;;;;;5094694;28;19965;-51
2022/04/13 13:04:50;;;;;;;;;;;;;;;;;;5094479;28;19920;-52
2022/04/13 13:07:17;;;;;;;;;;;;;;;;;;5094694;28;19957;-52
2022/04/13 13:09:44;;;;;;;;;;;;;;;;;;5094729;28;19915;-55
2022/04/13 13:12:10;;;;;;;;;;;;;;;;;;5094010;28;19990;-46
2022/04/13 13:14:37;;;;;;;;;;;;;;;;;;5094725;28;19908;-46
2022/04/13 13:17:03;;;;;;;;;;;;;;;;;;5094545;28;19912;-46
2022/04/13 13:19:30;;;;;;;;;;;;;;;;;;5094438;28;19924;-44
2022/04/13 13:21:56;;;;;;;;;;;;;;;;;;5094619;28;19953;-46
2022/04/13 13:24:23;;;;;;;;;;;;;;;;;;5094235;28;19908;-53
2022/04/13 13:26:49;;;;;;;;;;;;;;;;;;5094102;28;19912;-53
2022/04/13 13:29:16;;;;;;;;;;;;;;;;;;5094216;28;20049;-55
2022/04/13 13:31:42;;;;;;;;;;;;;;;;;;5093983;28;19919;-49
2022/04/13 13:34:08;;;;;;;;;;;;;;;;;;5093574;28;19960;-44
2022/04/13 13:36:35;;;;;;;;;;;;;;;;;;5094321;28;19908;-49
2022/04/13 13:39:01;;;;;;;;;;;;;;;;;;5094123;28;19919;-51
2022/04/13 13:41:29;;;;;;;;;;;;;;;;;;5093901;28;20000;-51
2022/04/13 13:43:57;;;;;;;;;;;;;;;;;;5094055;28;19908;-44
2022/04/13 13:46:25;;;;;;;;;;;;;;;;;;5093942;28;19908;-54
2022/04/13 13:48:51;;;;;;;;;;;;;;;;;;5093697;28;20019;-55
2022/04/13 13:51:18;;;;;;;;;;;;;;;;;;5094062;28;19908;-56
2022/04/13 13:53:49;;;;;;;;;;;;;;;;;;5093530;28;19951;-55
2022/04/13 13:56:16;;;;;;;;;;;;;;;;;;5093893;28;20007;-55
2022/04/13 13:58:43;;;;;;;;;;;;;;;;;;5093855;28;19920;-55
2022/04/13 14:01:10;;;;;;;;;;;;;;;;;;5094424;28;19908;-47
2022/04/13 14:03:36;;;;;;;;;;;;;;;;;;5093630;28;19950;-56
2022/04/13 14:06:03;;;;;;;;;;;;;;;;;;5093529;28;19916;-52
2022/04/13 14:08:29;;;;;;;;;;;;;;;;;;5093396;28;20052;-55
2022/04/13 14:10:56;;;;;;;;;;;;;;;;;;5093535;28;20011;-54
2022/04/13 14:13:22;;;;;;;;;;;;;;;;;;5093901;28;19931;-52
2022/04/13 14:15:49;;;;;;;;;;;;;;;;;;5093925;28;19908;-53
2022/04/13 14:18:15;;;;;;;;;;;;;;;;;;5093056;28;19923;-55
2022/04/13 14:20:42;;;;;;;;;;;;;;;;;;5093490;28;19912;-48
2022/04/13 14:23:08;;;;;;;;;;;;;;;;;;5093546;28;19909;-55
2022/04/13 14:25:35;;;;;;;;;;;;;;;;;;5093704;28;19909;-51
2022/04/13 14:28:02;;;;;;;;;;;;;;;;;;5093546;28;19912;-54
2022/04/13 14:30:28;;;;;;;;;;;;;;;;;;5093380;28;19919;-56
2022/04/13 14:32:55;;;;;;;;;;;;;;;;;;5093230;28;20372;-54
2022/04/13 14:35:21;;;;;;;;;;;;;;;;;;5093164;28;20310;-52
2022/04/13 14:37:48;;;;;;;;;;;;;;;;;;5092991;28;20213;-47
2022/04/13 14:40:14;;;;;;;;;;;;;;;;;;5093191;28;19961;-53
2022/04/13 14:42:41;;;;;;;;;;;;;;;;;;5093273;28;19969;-53
2022/04/13 14:45:08;;;;;;;;;;;;;;;;;;5092470;28;19915;-52
2022/04/13 14:47:34;;;;;;;;;;;;;;;;;;5093009;28;19982;-53
2022/04/13 14:50:01;;;;;;;;;;;;;;;;;;5092898;28;19908;-54
2022/04/13 14:52:27;;;;;;;;;;;;;;;;;;5092776;28;19908;-48
2022/04/13 14:54:54;;;;;;;;;;;;;;;;;;5093414;28;19908;-54
2022/04/13 14:57:20;;;;;;;;;;;;;;;;;;5092879;28;20278;-52
2022/04/13 14:59:47;;;;;;;;;;;;;;;;;;5093046;28;19908;-49
2022/04/13 15:02:14;;;;;;;;;;;;;;;;;;5093041;28;19912;-51
2022/04/13 15:04:40;;;;;;;;;;;;;;;;;;5092749;28;19920;-48
2022/04/13 15:07:09;;;;;;;;;;;;;;;;;;5093054;28;19916;-47
2022/04/13 15:09:36;;;;;;;;;;;;;;;;;;5092722;28;19909;-49
2022/04/13 15:12:03;;;;;;;;;;;;;;;;;;5092838;28;19913;-50
2022/04/13 15:14:29;;;;;;;;;;;;;;;;;;5092787;28;19908;-50
2022/04/13 15:16:56;;;;;;;;;;;;;;;;;;5092728;28;19912;-52
2022/04/13 15:19:22;;;;;;;;;;;;;;;;;;5092734;28;19908;-53
2022/04/13 15:21:49;;;;;;;;;;;;;;;;;;5092875;28;19916;-48
2022/04/13 15:24:16;;;;;;;;;;;;;;;;;;5092577;28;20267;-51
2022/04/13 15:26:42;;;;;;;;;;;;;;;;;;5091587;28;20354;-47
2022/04/13 15:29:09;;;;;;;;;;;;;;;;;;5092949;28;19908;-49
2022/04/13 15:31:36;;;;;;;;;;;;;;;;;;5092750;28;20278;-50
2022/04/13 15:34:03;;;;;;;;;;;;;;;;;;5092842;28;19915;-49
2022/04/13 15:36:29;;;;;;;;;;;;;;;;;;5092389;28;19915;-48
2022/04/13 15:38:56;;;;;;;;;;;;;;;;;;5092939;28;19954;-50
2022/04/13 15:41:22;;;;;;;;;;;;;;;;;;5092717;28;19919;-47
2022/04/13 15:43:49;;;;;;;;;;;;;;;;;;5092702;28;20398;-53
2022/04/13 15:46:15;;;;;;;;;;;;;;;;;;5092387;28;20288;-48
2022/04/13 15:48:42;;;;;;;;;;;;;;;;;;5092674;28;19952;-55
2022/04/13 15:51:08;;;;;;;;;;;;;;;;;;5092896;28;19908;-54
2022/04/13 15:53:35;;;;;;;;;;;;;;;;;;5092668;28;19908;-53
2022/04/13 15:56:04;;;;;;;;;;;;;;;;;;5094078;28;19993;-48
2022/04/13 15:58:30;;;;;;;;;;;;;;;;;;5096131;28;19916;-48
2022/04/13 16:00:57;;;;;;;;;;;;;;;;;;5096171;28;19965;-56
2022/04/13 16:03:23;;;;;;;;;;;;;;;;;;5095963;28;19908;-54
2022/04/13 16:05:50;;;;;;;;;;;;;;;;;;5096040;28;19920;-55
2022/04/13 16:08:16;;;;;;;;;;;;;;;;;;5095972;28;19908;-49
2022/04/13 16:10:43;;;;;;;;;;;;;;;;;;5095976;28;19908;-48
2022/04/13 16:13:09;;;;;;;;;;;;;;;;;;5095808;28;19954;-52
2022/04/13 16:15:36;;;;;;;;;;;;;;;;;;5095918;28;19934;-53
2022/04/13 16:18:02;;;;;;;;;;;;;;;;;;5095574;28;19927;-47
2022/04/13 16:20:28;;;;;;;;;;;;;;;;;;5095505;28;19909;-49
2022/04/13 16:22:55;;;;;;;;;;;;;;;;;;5095852;28;19912;-50
2022/04/13 16:25:25;;;;;;;;;;;;;;;;;;5095390;28;19908;-45
2022/04/13 16:27:52;;;;;;;;;;;;;;;;;;5095589;28;19912;-46
2022/04/13 16:30:18;;;;;;;;;;;;;;;;;;5093976;28;19962;-51
2022/04/13 16:32:45;;;;;;;;;;;;;;;;;;5095494;28;19908;-48
2022/04/13 16:35:11;;;;;;;;;;;;;;;;;;5095846;28;19915;-49
2022/04/13 16:37:38;;;;;;;;;;;;;;;;;;5095495;28;19912;-45
2022/04/13 16:40:04;;;;;;;;;;;;;;;;;;5095358;28;20269;-46
2022/04/13 16:42:31;;;;;;;;;;;;;;;;;;5095057;28;19969;-47